sensor_id;sensor_type;location;lat;lon;timestamp;pressure;altitude;pressure_sealevel;temperature;humidity
49835;BME280;35729;52.090;13.162;2024-01-27T00:00:15;102127.47;;;4.15;87.69
49835;BME280;35729;52.090;13.162;2024-01-27T00:02:43;102133.59;;;4.17;86.66
49835;BME280;35729;52.090;13.162;2024-01-27T00:05:15;102137.03;;;4.16;85.44
49835;BME280;35729;52.090;13.162;2024-01-27T00:07:43;102151.81;;;4.19;85.30
49835;BME280;35729;52.090;13.162;2024-01-27T00:10:12;102149.28;;;4.22;86.23
49835;BME280;35729;52.090;13.162;2024-01-27T00:12:40;102141.56;;;4.23;86.62
49835;BME280;35729;52.090;13.162;2024-01-27T00:15:09;102157.19;;;4.25;84.05
49835;BME280;35729;52.090;13.162;2024-01-27T00:17:37;102154.63;;;4.27;82.65
49835;BME280;35729;52.090;13.162;2024-01-27T00:20:07;102156.41;;;4.29;86.60
49835;BME280;35729;52.090;13.162;2024-01-27T00:22:38;102160.78;;;4.30;84.91
49835;BME280;35729;52.090;13.162;2024-01-27T00:25:07;102173.81;;;4.32;85.78
49835;BME280;35729;52.090;13.162;2024-01-27T00:27:36;102159.16;;;4.34;86.71
49835;BME280;35729;52.090;13.162;2024-01-27T00:30:06;102167.78;;;4.33;84.16
49835;BME280;35729;52.090;13.162;2024-01-27T00:32:36;102159.16;;;4.34;85.64
49835;BME280;35729;52.090;13.162;2024-01-27T00:35:07;102159.13;;;4.32;84.86
49835;BME280;35729;52.090;13.162;2024-01-27T00:37:39;102162.63;;;4.34;83.99
49835;BME280;35729;52.090;13.162;2024-01-27T00:40:10;102169.59;;;4.35;82.82
49835;BME280;35729;52.090;13.162;2024-01-27T00:42:40;102162.66;;;4.36;84.56
49835;BME280;35729;52.090;13.162;2024-01-27T00:45:09;102161.72;;;4.32;81.66
49835;BME280;35729;52.090;13.162;2024-01-27T00:47:38;102166.06;;;4.33;83.06
49835;BME280;35729;52.090;13.162;2024-01-27T00:50:07;102158.22;;;4.32;80.61
49835;BME280;35729;52.090;13.162;2024-01-27T00:52:39;102175.53;;;4.31;81.73
49835;BME280;35729;52.090;13.162;2024-01-27T00:55:08;102173.78;;;4.30;80.79
49835;BME280;35729;52.090;13.162;2024-01-27T00:57:36;102179.84;;;4.31;80.75
49835;BME280;35729;52.090;13.162;2024-01-27T01:00:07;102173.78;;;4.30;81.06
49835;BME280;35729;52.090;13.162;2024-01-27T01:02:36;102174.63;;;4.31;81.93
49835;BME280;35729;52.090;13.162;2024-01-27T01:05:07;102182.44;;;4.31;79.87
49835;BME280;35729;52.090;13.162;2024-01-27T01:07:35;102169.50;;;4.32;80.86
49835;BME280;35729;52.090;13.162;2024-01-27T01:10:07;102186.84;;;4.33;82.45
49835;BME280;35729;52.090;13.162;2024-01-27T01:12:36;102175.53;;;4.31;80.25
49835;BME280;35729;52.090;13.162;2024-01-27T01:15:11;102200.63;;;4.31;79.58
49835;BME280;35729;52.090;13.162;2024-01-27T01:17:39;102190.31;;;4.32;80.36
49835;BME280;35729;52.090;13.162;2024-01-27T01:20:08;102212.81;;;4.33;81.17
49835;BME280;35729;52.090;13.162;2024-01-27T01:22:37;102214.56;;;4.33;80.81
49835;BME280;35729;52.090;13.162;2024-01-27T01:25:08;102229.28;;;4.32;78.74
49835;BME280;35729;52.090;13.162;2024-01-27T01:27:37;102209.38;;;4.34;80.53
49835;BME280;35729;52.090;13.162;2024-01-27T01:30:04;102207.63;;;4.33;81.13
49835;BME280;35729;52.090;13.162;2024-01-27T01:32:32;102236.16;;;4.32;78.47
49835;BME280;35729;52.090;13.162;2024-01-27T01:35:01;102233.59;;;4.33;79.85
49835;BME280;35729;52.090;13.162;2024-01-27T01:37:29;102230.13;;;4.33;79.91
49835;BME280;35729;52.090;13.162;2024-01-27T01:39:58;102229.28;;;4.32;79.19
49835;BME280;35729;52.090;13.162;2024-01-27T01:42:30;102229.28;;;4.32;81.79
49835;BME280;35729;52.090;13.162;2024-01-27T01:44:59;102239.66;;;4.32;80.16
49835;BME280;35729;52.090;13.162;2024-01-27T01:47:27;102225.75;;;4.30;80.26
49835;BME280;35729;52.090;13.162;2024-01-27T01:49:56;102227.50;;;4.31;83.46
49835;BME280;35729;52.090;13.162;2024-01-27T01:52:25;102247.34;;;4.29;80.21
49835;BME280;35729;52.090;13.162;2024-01-27T01:54:53;102231.78;;;4.29;79.90
49835;BME280;35729;52.090;13.162;2024-01-27T01:57:22;102227.47;;;4.30;81.29
49835;BME280;35729;52.090;13.162;2024-01-27T01:59:59;102247.31;;;4.28;79.74
49835;BME280;35729;52.090;13.162;2024-01-27T02:02:34;102244.75;;;4.29;79.19
49835;BME280;35729;52.090;13.162;2024-01-27T02:05:04;102249.88;;;4.26;78.81
49835;BME280;35729;52.090;13.162;2024-01-27T02:07:35;102232.56;;;4.27;80.35
49835;BME280;35729;52.090;13.162;2024-01-27T02:10:05;102274.09;;;4.25;80.21
49835;BME280;35729;52.090;13.162;2024-01-27T02:12:34;102228.19;;;4.26;80.22
49835;BME280;35729;52.090;13.162;2024-01-27T02:15:09;102232.53;;;4.25;80.63
49835;BME280;35729;52.090;13.162;2024-01-27T02:17:38;102244.59;;;4.23;80.06
49835;BME280;35729;52.090;13.162;2024-01-27T02:20:08;102280.94;;;4.23;80.86
49835;BME280;35729;52.090;13.162;2024-01-27T02:22:37;102240.28;;;4.23;81.14
49835;BME280;35729;52.090;13.162;2024-01-27T02:25:08;102244.59;;;4.23;82.34
49835;BME280;35729;52.090;13.162;2024-01-27T02:27:36;102239.34;;;4.21;82.10
49835;BME280;35729;52.090;13.162;2024-01-27T02:30:06;102257.53;;;4.21;83.35
49835;BME280;35729;52.090;13.162;2024-01-27T02:32:35;102236.75;;;4.21;83.85
49835;BME280;35729;52.090;13.162;2024-01-27T02:35:04;102255.69;;;4.17;83.56
49835;BME280;35729;52.090;13.162;2024-01-27T02:37:33;102240.09;;;4.17;84.16
49835;BME280;35729;52.090;13.162;2024-01-27T02:40:02;102241.72;;;4.14;84.11
49835;BME280;35729;52.090;13.162;2024-01-27T02:42:34;102252.09;;;4.12;83.29
49835;BME280;35729;52.090;13.162;2024-01-27T02:45:02;102260.59;;;4.08;83.06
49835;BME280;35729;52.090;13.162;2024-01-27T02:47:31;102259.69;;;4.06;84.83
49835;BME280;35729;52.090;13.162;2024-01-27T02:49:59;102275.13;;;4.01;84.23
49835;BME280;35729;52.090;13.162;2024-01-27T02:52:28;102270.72;;;3.99;85.40
49835;BME280;35729;52.090;13.162;2024-01-27T02:54:56;102278.47;;;3.97;85.17
49835;BME280;35729;52.090;13.162;2024-01-27T02:57:25;102261.06;;;3.93;86.73
49835;BME280;35729;52.090;13.162;2024-01-27T02:59:56;102265.16;;;3.86;85.00
49835;BME280;35729;52.090;13.162;2024-01-27T03:02:24;102257.25;;;3.82;84.10
49835;BME280;35729;52.090;13.162;2024-01-27T03:04:53;102264.88;;;3.77;85.04
49835;BME280;35729;52.090;13.162;2024-01-27T03:07:21;102253.47;;;3.72;86.49
49835;BME280;35729;52.090;13.162;2024-01-27T03:09:50;102262.72;;;3.64;84.32
49835;BME280;35729;52.090;13.162;2024-01-27T03:12:18;102285.91;;;3.57;84.79
49835;BME280;35729;52.090;13.162;2024-01-27T03:14:48;102270.28;;;3.56;86.27
49835;BME280;35729;52.090;13.162;2024-01-27T03:17:20;102272.78;;;3.53;86.40
49835;BME280;35729;52.090;13.162;2024-01-27T03:19:48;102277.81;;;3.48;86.01
49835;BME280;35729;52.090;13.162;2024-01-27T03:22:17;102269.16;;;3.48;87.98
49835;BME280;35729;52.090;13.162;2024-01-27T03:24:45;102274.19;;;3.43;87.00
49835;BME280;35729;52.090;13.162;2024-01-27T03:27:14;102280.19;;;3.40;86.79
49835;BME280;35729;52.090;13.162;2024-01-27T03:29:42;102290.44;;;3.37;86.40
49835;BME280;35729;52.090;13.162;2024-01-27T03:32:11;102291.28;;;3.36;88.32
49835;BME280;35729;52.090;13.162;2024-01-27T03:34:44;102288.56;;;3.33;87.08
49835;BME280;35729;52.090;13.162;2024-01-27T03:37:13;102282.53;;;3.33;86.67
49835;BME280;35729;52.090;13.162;2024-01-27T03:39:41;102275.56;;;3.32;87.05
49835;BME280;35729;52.090;13.162;2024-01-27T03:42:10;102285.91;;;3.30;87.46
49835;BME280;35729;52.090;13.162;2024-01-27T03:44:39;102300.56;;;3.30;86.79
49835;BME280;35729;52.090;13.162;2024-01-27T03:47:08;102286.72;;;3.29;87.18
49835;BME280;35729;52.090;13.162;2024-01-27T03:49:36;102288.50;;;3.30;86.95
49835;BME280;35729;52.090;13.162;2024-01-27T03:52:07;102288.50;;;3.30;87.55
49835;BME280;35729;52.090;13.162;2024-01-27T03:54:37;102311.72;;;3.27;85.76
49835;BME280;35729;52.090;13.162;2024-01-27T03:57:06;102297.88;;;3.26;86.31
49835;BME280;35729;52.090;13.162;2024-01-27T03:59:34;102297.06;;;3.28;89.84
49835;BME280;35729;52.090;13.162;2024-01-27T04:02:03;102295.28;;;3.26;88.04
49835;BME280;35729;52.090;13.162;2024-01-27T04:04:31;102292.56;;;3.23;88.64
49835;BME280;35729;52.090;13.162;2024-01-27T04:07:00;102305.53;;;3.23;89.91
49835;BME280;35729;52.090;13.162;2024-01-27T04:09:32;102309.00;;;3.22;89.71
49835;BME280;35729;52.090;13.162;2024-01-27T04:12:00;102309.78;;;3.20;90.36
49835;BME280;35729;52.090;13.162;2024-01-27T04:14:28;102311.41;;;3.18;88.03
49835;BME280;35729;52.090;13.162;2024-01-27T04:16:57;102315.75;;;3.17;89.01
49835;BME280;35729;52.090;13.162;2024-01-27T04:19:25;102311.34;;;3.15;88.77
49835;BME280;35729;52.090;13.162;2024-01-27T04:21:54;102320.81;;;3.14;90.63
49835;BME280;35729;52.090;13.162;2024-01-27T04:24:22;102336.28;;;3.11;87.24
49835;BME280;35729;52.090;13.162;2024-01-27T04:26:53;102327.59;;;3.10;89.21
49835;BME280;35729;52.090;13.162;2024-01-27T04:29:22;102334.47;;;3.08;88.33
49835;BME280;35729;52.090;13.162;2024-01-27T04:31:50;102327.50;;;3.07;88.95
49835;BME280;35729;52.090;13.162;2024-01-27T04:34:19;102337.91;;;3.09;89.12
49835;BME280;35729;52.090;13.162;2024-01-27T04:36:47;102334.38;;;3.07;89.95
49835;BME280;35729;52.090;13.162;2024-01-27T04:39:17;102336.09;;;3.06;89.08
49835;BME280;35729;52.090;13.162;2024-01-27T04:41:46;102336.94;;;3.05;89.01
49835;BME280;35729;52.090;13.162;2024-01-27T04:44:17;102347.31;;;3.05;88.41
49835;BME280;35729;52.090;13.162;2024-01-27T04:46:46;102353.31;;;3.04;89.84
49835;BME280;35729;52.090;13.162;2024-01-27T04:49:14;102350.78;;;3.06;89.54
49835;BME280;35729;52.090;13.162;2024-01-27T04:51:43;102341.28;;;3.06;90.33
49835;BME280;35729;52.090;13.162;2024-01-27T04:54:11;102336.94;;;3.05;90.32
49835;BME280;35729;52.090;13.162;2024-01-27T04:56:40;102346.38;;;3.03;90.66
49835;BME280;35729;52.090;13.162;2024-01-27T04:59:08;102356.75;;;3.03;90.30
49835;BME280;35729;52.090;13.162;2024-01-27T05:01:39;102363.59;;;3.01;88.94
49835;BME280;35729;52.090;13.162;2024-01-27T05:04:12;102370.47;;;3.01;88.99
49835;BME280;35729;52.090;13.162;2024-01-27T05:06:43;102361.88;;;3.02;91.11
49835;BME280;35729;52.090;13.162;2024-01-27T05:09:12;102367.88;;;3.01;89.91
49835;BME280;35729;52.090;13.162;2024-01-27T05:11:41;102383.38;;;2.99;89.09
49835;BME280;35729;52.090;13.162;2024-01-27T05:14:11;102369.59;;;3.00;89.03
49835;BME280;35729;52.090;13.162;2024-01-27T05:16:42;102395.53;;;3.00;89.88
49835;BME280;35729;52.090;13.162;2024-01-27T05:19:11;102375.59;;;2.99;90.12
49835;BME280;35729;52.090;13.162;2024-01-27T05:21:40;102376.50;;;3.00;89.54
49835;BME280;35729;52.090;13.162;2024-01-27T05:24:09;102383.38;;;2.99;89.80
49835;BME280;35729;52.090;13.162;2024-01-27T05:26:37;102380.00;;;3.02;91.70
49835;BME280;35729;52.090;13.162;2024-01-27T05:29:06;102397.28;;;3.01;90.38
49835;BME280;35729;52.090;13.162;2024-01-27T05:31:34;102393.88;;;3.02;90.26
49835;BME280;35729;52.090;13.162;2024-01-27T05:34:05;102398.16;;;3.02;91.97
49835;BME280;35729;52.090;13.162;2024-01-27T05:36:33;102396.34;;;2.99;90.77
49835;BME280;35729;52.090;13.162;2024-01-27T05:39:02;102403.22;;;2.97;90.57
49835;BME280;35729;52.090;13.162;2024-01-27T05:41:32;102396.34;;;2.99;91.90
49835;BME280;35729;52.090;13.162;2024-01-27T05:44:00;102403.22;;;2.97;91.71
49835;BME280;35729;52.090;13.162;2024-01-27T05:46:29;102424.78;;;2.96;91.41
49835;BME280;35729;52.090;13.162;2024-01-27T05:48:57;102410.03;;;2.95;91.95
49835;BME280;35729;52.090;13.162;2024-01-27T05:51:31;102410.84;;;2.94;91.76
49835;BME280;35729;52.090;13.162;2024-01-27T05:53:59;102429.00;;;2.94;91.29
49835;BME280;35729;52.090;13.162;2024-01-27T05:56:27;102419.59;;;2.96;93.05
49835;BME280;35729;52.090;13.162;2024-01-27T05:58:56;102422.19;;;2.96;93.11
49835;BME280;35729;52.090;13.162;2024-01-27T06:01:25;102417.88;;;2.97;93.18
49835;BME280;35729;52.090;13.162;2024-01-27T06:03:54;102423.94;;;2.97;94.26
49835;BME280;35729;52.090;13.162;2024-01-27T06:06:22;102427.41;;;2.98;94.44
49835;BME280;35729;52.090;13.162;2024-01-27T06:08:53;102423.03;;;2.97;94.68
49835;BME280;35729;52.090;13.162;2024-01-27T06:11:25;102433.41;;;2.97;93.74
49835;BME280;35729;52.090;13.162;2024-01-27T06:13:54;102428.25;;;2.97;93.01
49835;BME280;35729;52.090;13.162;2024-01-27T06:16:23;102426.59;;;2.99;94.06
49835;BME280;35729;52.090;13.162;2024-01-27T06:18:52;102425.81;;;3.01;93.49
49835;BME280;35729;52.090;13.162;2024-01-27T06:21:21;102431.97;;;3.03;93.53
49835;BME280;35729;52.090;13.162;2024-01-27T06:23:52;102451.03;;;3.05;92.39
49835;BME280;35729;52.090;13.162;2024-01-27T06:26:21;102446.78;;;3.07;93.14
49835;BME280;35729;52.090;13.162;2024-01-27T06:28:49;102453.03;;;3.13;91.57
49835;BME280;35729;52.090;13.162;2024-01-27T06:31:18;102466.09;;;3.16;92.55
49835;BME280;35729;52.090;13.162;2024-01-27T06:33:46;102460.22;;;3.20;93.54
49835;BME280;35729;52.090;13.162;2024-01-27T06:36:15;102465.53;;;3.24;93.77
49835;BME280;35729;52.090;13.162;2024-01-27T06:38:43;102471.69;;;3.26;93.30
49835;BME280;35729;52.090;13.162;2024-01-27T06:41:14;102477.81;;;3.29;93.57
49835;BME280;35729;52.090;13.162;2024-01-27T06:43:43;102468.38;;;3.31;92.70
49835;BME280;35729;52.090;13.162;2024-01-27T06:46:11;102478.75;;;3.31;92.63
49835;BME280;35729;52.090;13.162;2024-01-27T06:48:40;102476.19;;;3.32;92.73
49835;BME280;35729;52.090;13.162;2024-01-27T06:51:08;102484.06;;;3.34;93.32
49835;BME280;35729;52.090;13.162;2024-01-27T06:53:37;102483.22;;;3.35;93.22
49835;BME280;35729;52.090;13.162;2024-01-27T06:56:06;102484.16;;;3.37;93.87
49835;BME280;35729;52.090;13.162;2024-01-27T06:58:37;102478.16;;;3.38;93.57
49835;BME280;35729;52.090;13.162;2024-01-27T07:01:07;102491.16;;;3.39;94.21
49835;BME280;35729;52.090;13.162;2024-01-27T07:03:36;102488.56;;;3.39;93.60
49835;BME280;35729;52.090;13.162;2024-01-27T07:06:05;102493.03;;;3.43;95.34
49835;BME280;35729;52.090;13.162;2024-01-27T07:08:33;102492.22;;;3.45;94.72
49835;BME280;35729;52.090;13.162;2024-01-27T07:11:02;102497.44;;;3.46;95.36
49835;BME280;35729;52.090;13.162;2024-01-27T07:13:31;102512.19;;;3.47;95.62
49835;BME280;35729;52.090;13.162;2024-01-27T07:16:08;102509.56;;;3.46;93.25
49835;BME280;35729;52.090;13.162;2024-01-27T07:18:37;102516.56;;;3.48;94.17
49835;BME280;35729;52.090;13.162;2024-01-27T07:21:05;102510.56;;;3.49;94.51
49835;BME280;35729;52.090;13.162;2024-01-27T07:23:33;102527.00;;;3.50;92.61
49835;BME280;35729;52.090;13.162;2024-01-27T07:26:02;102514.03;;;3.50;92.77
49835;BME280;35729;52.090;13.162;2024-01-27T07:28:31;102520.13;;;3.50;94.07
49835;BME280;35729;52.090;13.162;2024-01-27T07:30:59;102527.03;;;3.51;92.72
49835;BME280;35729;52.090;13.162;2024-01-27T07:33:37;102538.31;;;3.52;92.66
49835;BME280;35729;52.090;13.162;2024-01-27T07:36:06;102541.88;;;3.54;94.49
49835;BME280;35729;52.090;13.162;2024-01-27T07:38:36;102535.06;;;3.57;94.88
49835;BME280;35729;52.090;13.162;2024-01-27T07:41:05;102536.88;;;3.60;93.18
49835;BME280;35729;52.090;13.162;2024-01-27T07:43:33;102564.56;;;3.59;92.38
49835;BME280;35729;52.090;13.162;2024-01-27T07:46:02;102546.38;;;3.59;92.90
49835;BME280;35729;52.090;13.162;2024-01-27T07:48:30;102551.03;;;3.68;94.54
49835;BME280;35729;52.090;13.162;2024-01-27T07:51:02;102559.75;;;3.70;92.17
49835;BME280;35729;52.090;13.162;2024-01-27T07:53:30;102566.81;;;3.74;94.00
49835;BME280;35729;52.090;13.162;2024-01-27T07:55:59;102558.25;;;3.77;92.08
49835;BME280;35729;52.090;13.162;2024-01-27T07:58:27;102566.16;;;3.80;93.40
49835;BME280;35729;52.090;13.162;2024-01-27T08:00:56;102567.91;;;3.81;94.04
49835;BME280;35729;52.090;13.162;2024-01-27T08:03:24;102562.78;;;3.83;92.06
49835;BME280;35729;52.090;13.162;2024-01-27T08:05:53;102574.97;;;3.85;92.58
49835;BME280;35729;52.090;13.162;2024-01-27T08:08:24;102580.25;;;3.87;91.72
49835;BME280;35729;52.090;13.162;2024-01-27T08:10:52;102571.69;;;3.89;91.81
49835;BME280;35729;52.090;13.162;2024-01-27T08:13:21;102583.06;;;3.93;93.81
49835;BME280;35729;52.090;13.162;2024-01-27T08:15:49;102574.50;;;3.96;93.22
49835;BME280;35729;52.090;13.162;2024-01-27T08:18:25;102582.28;;;3.96;91.36
49835;BME280;35729;52.090;13.162;2024-01-27T08:20:53;102584.03;;;3.97;92.11
49835;BME280;35729;52.090;13.162;2024-01-27T08:23:24;102590.22;;;4.00;92.26
49835;BME280;35729;52.090;13.162;2024-01-27T08:25:53;102596.38;;;4.02;93.21
49835;BME280;35729;52.090;13.162;2024-01-27T08:28:21;102593.81;;;4.04;92.61
49835;BME280;35729;52.090;13.162;2024-01-27T08:30:50;102588.75;;;4.07;94.35
49835;BME280;35729;52.090;13.162;2024-01-27T08:33:18;102605.25;;;4.09;91.10
49835;BME280;35729;52.090;13.162;2024-01-27T08:35:47;102594.06;;;4.12;93.66
49835;BME280;35729;52.090;13.162;2024-01-27T08:38:17;102601.09;;;4.14;91.84
49835;BME280;35729;52.090;13.162;2024-01-27T08:40:48;102614.22;;;4.17;93.73
49835;BME280;35729;52.090;13.162;2024-01-27T08:43:16;102616.03;;;4.20;93.28
49835;BME280;35729;52.090;13.162;2024-01-27T08:45:45;102623.81;;;4.20;90.19
49835;BME280;35729;52.090;13.162;2024-01-27T08:48:13;102620.44;;;4.22;90.38
49835;BME280;35729;52.090;13.162;2024-01-27T08:50:42;102624.81;;;4.23;91.37
49835;BME280;35729;52.090;13.162;2024-01-27T08:53:10;102627.56;;;4.28;93.53
49835;BME280;35729;52.090;13.162;2024-01-27T08:55:38;102641.50;;;4.30;91.01
49835;BME280;35729;52.090;13.162;2024-01-27T08:58:10;102640.66;;;4.31;92.18
49835;BME280;35729;52.090;13.162;2024-01-27T09:00:38;102638.16;;;4.34;91.95
49835;BME280;35729;52.090;13.162;2024-01-27T09:03:06;102645.13;;;4.35;90.90
49835;BME280;35729;52.090;13.162;2024-01-27T09:05:35;102646.88;;;4.35;89.26
49835;BME280;35729;52.090;13.162;2024-01-27T09:08:04;102660.81;;;4.38;90.84
49835;BME280;35729;52.090;13.162;2024-01-27T09:10:33;102662.66;;;4.41;91.46
49835;BME280;35729;52.090;13.162;2024-01-27T09:13:01;102668.84;;;4.45;93.18
49835;BME280;35729;52.090;13.162;2024-01-27T09:15:33;102669.72;;;4.45;91.03
49835;BME280;35729;52.090;13.162;2024-01-27T09:18:01;102676.63;;;4.45;89.19
49835;BME280;35729;52.090;13.162;2024-01-27T09:20:31;102670.50;;;4.43;87.68
49835;BME280;35729;52.090;13.162;2024-01-27T09:22:59;102663.63;;;4.45;90.45
49835;BME280;35729;52.090;13.162;2024-01-27T09:25:28;102668.91;;;4.46;88.69
49835;BME280;35729;52.090;13.162;2024-01-27T09:27:56;102663.81;;;4.49;92.14
49835;BME280;35729;52.090;13.162;2024-01-27T09:30:26;102672.47;;;4.50;89.79
49835;BME280;35729;52.090;13.162;2024-01-27T09:32:57;102668.13;;;4.49;89.78
49835;BME280;35729;52.090;13.162;2024-01-27T09:35:26;102669.94;;;4.51;92.05
49835;BME280;35729;52.090;13.162;2024-01-27T09:37:54;102689.00;;;4.52;89.26
49835;BME280;35729;52.090;13.162;2024-01-27T09:40:22;102679.63;;;4.55;91.55
49835;BME280;35729;52.090;13.162;2024-01-27T09:42:52;102684.03;;;4.58;91.63
49835;BME280;35729;52.090;13.162;2024-01-27T09:45:22;102676.28;;;4.60;90.51
49835;BME280;35729;52.090;13.162;2024-01-27T09:47:51;102690.22;;;4.62;90.93
49835;BME280;35729;52.090;13.162;2024-01-27T09:50:22;102683.25;;;4.61;91.97
49835;BME280;35729;52.090;13.162;2024-01-27T09:52:51;102689.31;;;4.61;90.40
49835;BME280;35729;52.090;13.162;2024-01-27T09:55:20;102682.50;;;4.65;92.91
49835;BME280;35729;52.090;13.162;2024-01-27T09:57:48;102683.34;;;4.64;88.49
49835;BME280;35729;52.090;13.162;2024-01-27T10:00:18;102690.31;;;4.65;90.58
49835;BME280;35729;52.090;13.162;2024-01-27T10:03:00;102687.78;;;4.66;90.46
49835;BME280;35729;52.090;13.162;2024-01-27T10:05:32;102687.78;;;4.66;90.65
49835;BME280;35729;52.090;13.162;2024-01-27T10:08:00;102715.66;;;4.70;91.37
49835;BME280;35729;52.090;13.162;2024-01-27T10:10:29;102689.53;;;4.67;88.19
49835;BME280;35729;52.090;13.162;2024-01-27T10:12:58;102698.25;;;4.68;90.45
49835;BME280;35729;52.090;13.162;2024-01-27T10:15:29;102709.47;;;4.67;88.14
49835;BME280;35729;52.090;13.162;2024-01-27T10:18:04;102697.34;;;4.67;89.18
49835;BME280;35729;52.090;13.162;2024-01-27T10:20:36;102716.41;;;4.66;87.02
49835;BME280;35729;52.090;13.162;2024-01-27T10:23:11;102700.84;;;4.68;89.02
49835;BME280;35729;52.090;13.162;2024-01-27T10:25:39;102699.22;;;4.71;88.56
49835;BME280;35729;52.090;13.162;2024-01-27T10:28:08;102695.72;;;4.71;88.02
49835;BME280;35729;52.090;13.162;2024-01-27T10:30:37;102706.13;;;4.71;87.75
49835;BME280;35729;52.090;13.162;2024-01-27T10:33:07;102700.94;;;4.71;89.58
49835;BME280;35729;52.090;13.162;2024-01-27T10:35:39;102717.44;;;4.71;86.77
49835;BME280;35729;52.090;13.162;2024-01-27T10:38:07;102694.94;;;4.73;88.97
49835;BME280;35729;52.090;13.162;2024-01-27T10:40:36;102695.06;;;4.77;89.89
49835;BME280;35729;52.090;13.162;2024-01-27T10:43:05;102697.75;;;4.80;89.18
49835;BME280;35729;52.090;13.162;2024-01-27T10:45:36;102704.78;;;4.82;88.25
49835;BME280;35729;52.090;13.162;2024-01-27T10:48:06;102697.00;;;4.84;89.00
49835;BME280;35729;52.090;13.162;2024-01-27T10:50:40;102698.84;;;4.86;88.85
49835;BME280;35729;52.090;13.162;2024-01-27T10:53:10;102706.75;;;4.89;89.36
49835;BME280;35729;52.090;13.162;2024-01-27T10:55:44;102707.75;;;4.93;88.90
49835;BME280;35729;52.090;13.162;2024-01-27T10:58:13;102704.19;;;4.91;87.95
49835;BME280;35729;52.090;13.162;2024-01-27T11:00:43;102725.00;;;4.91;87.34
49835;BME280;35729;52.090;13.162;2024-01-27T11:03:27;102723.31;;;4.92;86.70
49835;BME280;35729;52.090;13.162;2024-01-27T11:06:00;102714.72;;;4.94;88.40
49835;BME280;35729;52.090;13.162;2024-01-27T11:08:29;102716.53;;;4.97;88.40
49835;BME280;35729;52.090;13.162;2024-01-27T11:10:58;102710.56;;;4.99;88.07
49835;BME280;35729;52.090;13.162;2024-01-27T11:13:27;102701.88;;;5.00;88.35
49835;BME280;35729;52.090;13.162;2024-01-27T11:15:56;102706.25;;;5.01;88.54
49835;BME280;35729;52.090;13.162;2024-01-27T11:18:25;102725.38;;;5.02;86.78
49835;BME280;35729;52.090;13.162;2024-01-27T11:20:56;102721.16;;;5.05;89.77
49835;BME280;35729;52.090;13.162;2024-01-27T11:23:35;102723.84;;;5.09;87.63
49835;BME280;35729;52.090;13.162;2024-01-27T11:26:05;102723.94;;;5.12;88.21
49835;BME280;35729;52.090;13.162;2024-01-27T11:28:40;102713.50;;;5.10;86.08
49835;BME280;35729;52.090;13.162;2024-01-27T11:31:09;102747.34;;;5.12;86.43
49835;BME280;35729;52.090;13.162;2024-01-27T11:33:45;102743.00;;;5.11;86.42
49835;BME280;35729;52.090;13.162;2024-01-27T11:36:21;102733.38;;;5.08;85.60
49835;BME280;35729;52.090;13.162;2024-01-27T11:38:53;102730.84;;;5.10;86.67
49835;BME280;35729;52.090;13.162;2024-01-27T11:41:24;102730.91;;;5.13;88.51
49835;BME280;35729;52.090;13.162;2024-01-27T11:43:52;102743.94;;;5.13;86.40
49835;BME280;35729;52.090;13.162;2024-01-27T11:46:20;102730.06;;;5.12;87.12
49835;BME280;35729;52.090;13.162;2024-01-27T11:48:49;102730.91;;;5.13;86.21
49835;BME280;35729;52.090;13.162;2024-01-27T11:51:18;102725.72;;;5.13;86.16
49835;BME280;35729;52.090;13.162;2024-01-27T11:53:48;102711.91;;;5.15;87.28
49835;BME280;35729;52.090;13.162;2024-01-27T11:56:19;102722.56;;;5.23;88.48
49835;BME280;35729;52.090;13.162;2024-01-27T11:58:48;102715.03;;;5.31;88.50
49835;BME280;35729;52.090;13.162;2024-01-27T12:01:17;102723.75;;;5.33;86.84
49835;BME280;35729;52.090;13.162;2024-01-27T12:03:43;102722.13;;;5.36;86.42
49835;BME280;35729;52.090;13.162;2024-01-27T12:06:12;102729.16;;;5.39;89.50
49835;BME280;35729;52.090;13.162;2024-01-27T12:08:41;102733.63;;;5.43;87.70
49835;BME280;35729;52.090;13.162;2024-01-27T12:11:12;102739.84;;;5.48;85.83
49835;BME280;35729;52.090;13.162;2024-01-27T12:13:43;102744.28;;;5.51;85.08
49835;BME280;35729;52.090;13.162;2024-01-27T12:16:11;102733.94;;;5.52;84.95
49835;BME280;35729;52.090;13.162;2024-01-27T12:18:40;102739.19;;;5.54;86.63
49835;BME280;35729;52.090;13.162;2024-01-27T12:21:09;102752.25;;;5.55;88.80
49835;BME280;35729;52.090;13.162;2024-01-27T12:23:51;102755.75;;;5.56;86.34
49835;BME280;35729;52.090;13.162;2024-01-27T12:26:20;102756.66;;;5.58;86.66
49835;BME280;35729;52.090;13.162;2024-01-27T12:28:54;102749.75;;;5.59;86.90
49835;BME280;35729;52.090;13.162;2024-01-27T12:31:23;102757.59;;;5.60;89.35
49835;BME280;35729;52.090;13.162;2024-01-27T12:33:53;102766.41;;;5.64;89.89
49835;BME280;35729;52.090;13.162;2024-01-27T12:36:22;102767.38;;;5.67;88.85
49835;BME280;35729;52.090;13.162;2024-01-27T12:38:54;102776.94;;;5.68;85.72
49835;BME280;35729;52.090;13.162;2024-01-27T12:41:20;102771.81;;;5.70;85.61
49835;BME280;35729;52.090;13.162;2024-01-27T12:43:48;102764.09;;;5.75;87.66
49835;BME280;35729;52.090;13.162;2024-01-27T12:46:20;102768.53;;;5.77;88.06
49835;BME280;35729;52.090;13.162;2024-01-27T12:48:48;102756.47;;;5.81;88.92
49835;BME280;35729;52.090;13.162;2024-01-27T12:51:17;102753.19;;;5.86;89.11
49835;BME280;35729;52.090;13.162;2024-01-27T12:53:45;102748.03;;;5.88;84.50
49835;BME280;35729;52.090;13.162;2024-01-27T12:56:14;102749.97;;;5.95;89.38
49835;BME280;35729;52.090;13.162;2024-01-27T12:58:43;102753.69;;;6.02;85.71
49835;BME280;35729;52.090;13.162;2024-01-27T13:01:11;102743.41;;;6.07;86.84